sensor_id;sensor_type;location;lat;lon;timestamp;temperature;humidity
55151;DHT22;41041;43.162;20.538;2022-09-23T00:02:07;256.00;2252.80
55151;DHT22;41041;43.162;20.538;2022-09-23T00:04:33;231.20;2252.80
55151;DHT22;41041;43.162;20.538;2022-09-23T00:10:23;256.10;2252.80
55151;DHT22;41041;43.162;20.538;2022-09-23T00:12:49;256.10;2252.80
55151;DHT22;41041;43.162;20.538;2022-09-23T00:15:15;256.00;2252.80
55151;DHT22;41041;43.162;20.538;2022-09-23T00:21:04;256.20;2252.80
55151;DHT22;41041;43.162;20.538;2022-09-23T00:23:31;256.30;2252.80
55151;DHT22;41041;43.162;20.538;2022-09-23T00:25:59;256.10;2252.80
55151;DHT22;41041;43.162;20.538;2022-09-23T00:28:25;231.30;2252.80
55151;DHT22;41041;43.162;20.538;2022-09-23T00:30:51;256.00;2252.80
55151;DHT22;41041;43.162;20.538;2022-09-23T00:33:17;231.10;2252.80
55151;DHT22;41041;43.162;20.538;2022-09-23T00:39:06;231.00;2252.80
55151;DHT22;41041;43.162;20.538;2022-09-23T00:41:31;230.90;2252.80
55151;DHT22;41041;43.162;20.538;2022-09-23T00:43:59;230.80;2252.80
55151;DHT22;41041;43.162;20.538;2022-09-23T00:50:02;230.70;2252.80
55151;DHT22;41041;43.162;20.538;2022-09-23T00:52:29;230.60;2252.80
55151;DHT22;41041;43.162;20.538;2022-09-23T00:54:57;230.60;2252.80
55151;DHT22;41041;43.162;20.538;2022-09-23T00:57:26;230.40;2252.80
55151;DHT22;41041;43.162;20.538;2022-09-23T00:59:53;205.70;2252.80
55151;DHT22;41041;43.162;20.538;2022-09-23T01:02:19;230.40;2252.80
55151;DHT22;41041;43.162;20.538;2022-09-23T01:04:48;205.70;2252.80
55151;DHT22;41041;43.162;20.538;2022-09-23T01:07:14;205.60;2252.80
55151;DHT22;41041;43.162;20.538;2022-09-23T01:09:40;205.70;2252.80
55151;DHT22;41041;43.162;20.538;2022-09-23T01:22:55;230.40;2252.80
55151;DHT22;41041;43.162;20.538;2022-09-23T01:35:01;205.40;2252.80
55151;DHT22;41041;43.162;20.538;2022-09-23T01:40:09;205.40;2252.80
55151;DHT22;41041;43.162;20.538;2022-09-23T01:45:47;205.50;2252.80
55151;DHT22;41041;43.162;20.538;2022-09-23T01:57:34;205.40;2252.80
55151;DHT22;41041;43.162;20.538;2022-09-23T02:00:13;205.20;2252.80
55151;DHT22;41041;43.162;20.538;2022-09-23T02:05:28;205.10;2252.80
55151;DHT22;41041;43.162;20.538;2022-09-23T02:08:05;205.00;2252.80
55151;DHT22;41041;43.162;20.538;2022-09-23T02:10:41;204.90;2252.80
55151;DHT22;41041;43.162;20.538;2022-09-23T02:18:53;230.40;2252.80
55151;DHT22;41041;43.162;20.538;2022-09-23T02:21:23;230.50;2252.80
55151;DHT22;41041;43.162;20.538;2022-09-23T02:23:57;205.70;2252.80
55151;DHT22;41041;43.162;20.538;2022-09-23T02:26:45;205.70;2252.80
55151;DHT22;41041;43.162;20.538;2022-09-23T02:29:48;230.40;2252.80
55151;DHT22;41041;43.162;20.538;2022-09-23T02:32:29;205.60;2252.80
55151;DHT22;41041;43.162;20.538;2022-09-23T02:40:33;230.80;2252.80
55151;DHT22;41041;43.162;20.538;2022-09-23T02:43:13;230.50;2252.80
55151;DHT22;41041;43.162;20.538;2022-09-23T02:45:41;230.50;2252.80
55151;DHT22;41041;43.162;20.538;2022-09-23T02:48:32;230.40;2252.80
55151;DHT22;41041;43.162;20.538;2022-09-23T02:50:59;230.50;2252.80
55151;DHT22;41041;43.162;20.538;2022-09-23T02:53:29;230.50;2252.80
55151;DHT22;41041;43.162;20.538;2022-09-23T02:55:58;230.50;2252.80
55151;DHT22;41041;43.162;20.538;2022-09-23T02:58:23;230.60;2252.80
55151;DHT22;41041;43.162;20.538;2022-09-23T03:01:01;230.60;2252.80
55151;DHT22;41041;43.162;20.538;2022-09-23T03:06:34;230.40;2252.80
55151;DHT22;41041;43.162;20.538;2022-09-23T03:11:38;230.50;2252.80
55151;DHT22;41041;43.162;20.538;2022-09-23T03:17:43;230.50;2252.80
55151;DHT22;41041;43.162;20.538;2022-09-23T03:20:28;205.70;2252.80
55151;DHT22;41041;43.162;20.538;2022-09-23T03:23:02;205.30;2252.80
55151;DHT22;41041;43.162;20.538;2022-09-23T03:25:33;205.40;2252.80
55151;DHT22;41041;43.162;20.538;2022-09-23T03:28:05;205.20;2252.80
55151;DHT22;41041;43.162;20.538;2022-09-23T03:30:35;205.20;2252.80
55151;DHT22;41041;43.162;20.538;2022-09-23T03:33:04;205.30;2252.80
55151;DHT22;41041;43.162;20.538;2022-09-23T03:35:32;205.50;2252.80
55151;DHT22;41041;43.162;20.538;2022-09-23T03:38:23;205.50;2252.80
55151;DHT22;41041;43.162;20.538;2022-09-23T03:40:51;205.60;2252.80
55151;DHT22;41041;43.162;20.538;2022-09-23T03:43:19;205.50;2252.80
55151;DHT22;41041;43.162;20.538;2022-09-23T03:45:45;205.40;2252.80
55151;DHT22;41041;43.162;20.538;2022-09-23T03:48:11;205.40;2252.80
55151;DHT22;41041;43.162;20.538;2022-09-23T03:50:39;205.30;2252.80
55151;DHT22;41041;43.162;20.538;2022-09-23T03:53:05;205.50;2252.80
55151;DHT22;41041;43.162;20.538;2022-09-23T03:55:32;205.60;2252.80
55151;DHT22;41041;43.162;20.538;2022-09-23T03:57:59;205.60;2252.80
55151;DHT22;41041;43.162;20.538;2022-09-23T04:00:25;205.60;2252.80
55151;DHT22;41041;43.162;20.538;2022-09-23T04:02:51;205.70;2252.80
55151;DHT22;41041;43.162;20.538;2022-09-23T04:05:17;205.70;2252.80
55151;DHT22;41041;43.162;20.538;2022-09-23T04:07:43;205.70;2252.80
55151;DHT22;41041;43.162;20.538;2022-09-23T04:10:09;230.50;2252.80
55151;DHT22;41041;43.162;20.538;2022-09-23T04:12:36;230.40;2252.80
55151;DHT22;41041;43.162;20.538;2022-09-23T04:15:02;230.50;2252.80
55151;DHT22;41041;43.162;20.538;2022-09-23T04:17:27;230.40;2252.80
55151;DHT22;41041;43.162;20.538;2022-09-23T04:19:53;230.50;2252.80
55151;DHT22;41041;43.162;20.538;2022-09-23T04:22:19;230.50;2252.80
55151;DHT22;41041;43.162;20.538;2022-09-23T04:24:45;230.40;2252.80
55151;DHT22;41041;43.162;20.538;2022-09-23T04:27:11;230.50;2252.80
55151;DHT22;41041;43.162;20.538;2022-09-23T04:29:37;230.40;2252.80
55151;DHT22;41041;43.162;20.538;2022-09-23T04:32:02;230.40;2252.80
55151;DHT22;41041;43.162;20.538;2022-09-23T04:34:28;230.50;2252.80
55151;DHT22;41041;43.162;20.538;2022-09-23T04:36:54;230.40;2252.80
55151;DHT22;41041;43.162;20.538;2022-09-23T04:39:19;230.50;2252.80
55151;DHT22;41041;43.162;20.538;2022-09-23T04:41:46;230.70;2252.80
55151;DHT22;41041;43.162;20.538;2022-09-23T04:44:12;230.70;2252.80
55151;DHT22;41041;43.162;20.538;2022-09-23T04:46:41;230.70;2252.80
55151;DHT22;41041;43.162;20.538;2022-09-23T04:49:14;230.60;2252.80
55151;DHT22;41041;43.162;20.538;2022-09-23T04:51:41;230.70;2252.80
55151;DHT22;41041;43.162;20.538;2022-09-23T04:54:26;230.80;2252.80
55151;DHT22;41041;43.162;20.538;2022-09-23T04:56:55;231.00;2252.80
55151;DHT22;41041;43.162;20.538;2022-09-23T04:59:21;231.20;2252.80
55151;DHT22;41041;43.162;20.538;2022-09-23T05:01:46;231.10;2252.80
55151;DHT22;41041;43.162;20.538;2022-09-23T05:04:15;231.30;2252.80
55151;DHT22;41041;43.162;20.538;2022-09-23T05:06:41;256.20;2252.80
55151;DHT22;41041;43.162;20.538;2022-09-23T05:09:14;231.20;2252.80
55151;DHT22;41041;43.162;20.538;2022-09-23T05:11:54;231.00;2252.80
55151;DHT22;41041;43.162;20.538;2022-09-23T05:14:20;231.10;2252.80
55151;DHT22;41041;43.162;20.538;2022-09-23T05:16:46;231.00;2252.80
55151;DHT22;41041;43.162;20.538;2022-09-23T05:19:18;231.20;2252.80
55151;DHT22;41041;43.162;20.538;2022-09-23T05:21:44;231.10;2252.80
55151;DHT22;41041;43.162;20.538;2022-09-23T05:24:13;231.00;2252.80
55151;DHT22;41041;43.162;20.538;2022-09-23T05:26:39;231.10;2252.80
55151;DHT22;41041;43.162;20.538;2022-09-23T05:29:05;231.10;2252.80
55151;DHT22;41041;43.162;20.538;2022-09-23T05:31:34;231.30;2252.80
55151;DHT22;41041;43.162;20.538;2022-09-23T05:34:02;231.20;2252.80
55151;DHT22;41041;43.162;20.538;2022-09-23T05:36:38;231.10;2252.80
55151;DHT22;41041;43.162;20.538;2022-09-23T05:39:05;231.10;2252.80
55151;DHT22;41041;43.162;20.538;2022-09-23T05:41:31;231.00;2252.80
55151;DHT22;41041;43.162;20.538;2022-09-23T05:44:28;230.90;2252.80
55151;DHT22;41041;43.162;20.538;2022-09-23T05:46:54;231.20;2252.80
55151;DHT22;41041;43.162;20.538;2022-09-23T05:49:22;231.20;2252.80
55151;DHT22;41041;43.162;20.538;2022-09-23T05:52:23;231.20;2252.80
55151;DHT22;41041;43.162;20.538;2022-09-23T05:54:50;231.30;2252.80
55151;DHT22;41041;43.162;20.538;2022-09-23T05:57:16;231.20;2252.80
55151;DHT22;41041;43.162;20.538;2022-09-23T06:03:05;256.00;2252.80
55151;DHT22;41041;43.162;20.538;2022-09-23T06:05:31;256.30;2252.80
55151;DHT22;41041;43.162;20.538;2022-09-23T06:08:00;256.30;2252.80
55151;DHT22;41041;43.162;20.538;2022-09-23T06:13:58;256.60;2252.80
55151;DHT22;41041;43.162;20.538;2022-09-23T06:16:32;256.50;2252.80
55151;DHT22;41041;43.162;20.538;2022-09-23T06:19:02;256.40;2252.80
55151;DHT22;41041;43.162;20.538;2022-09-23T06:21:40;256.20;2252.80
55151;DHT22;41041;43.162;20.538;2022-09-23T06:24:06;256.20;2252.80
55151;DHT22;41041;43.162;20.538;2022-09-23T06:26:33;256.60;2252.80
55151;DHT22;41041;43.162;20.538;2022-09-23T06:29:00;256.60;2252.80
55151;DHT22;41041;43.162;20.538;2022-09-23T06:31:27;256.40;2252.80
55151;DHT22;41041;43.162;20.538;2022-09-23T06:33:53;256.30;2252.80
55151;DHT22;41041;43.162;20.538;2022-09-23T06:39:41;256.10;2252.80
55151;DHT22;41041;43.162;20.538;2022-09-23T06:42:07;256.20;2252.80
55151;DHT22;41041;43.162;20.538;2022-09-23T06:44:32;256.10;2252.80
55151;DHT22;41041;43.162;20.538;2022-09-23T06:46:59;256.10;2252.80
55151;DHT22;41041;43.162;20.538;2022-09-23T06:49:28;256.00;2252.80
55151;DHT22;41041;43.162;20.538;2022-09-23T06:51:56;256.10;2252.80
55151;DHT22;41041;43.162;20.538;2022-09-23T06:54:22;256.20;2252.80
55151;DHT22;41041;43.162;20.538;2022-09-23T06:56:48;256.20;2252.80
55151;DHT22;41041;43.162;20.538;2022-09-23T06:59:14;256.20;2252.80
55151;DHT22;41041;43.162;20.538;2022-09-23T07:01:46;256.30;2252.80
55151;DHT22;41041;43.162;20.538;2022-09-23T07:04:29;256.40;2252.80
55151;DHT22;41041;43.162;20.538;2022-09-23T07:06:55;256.50;2252.80
55151;DHT22;41041;43.162;20.538;2022-09-23T07:09:21;256.20;2252.80
55151;DHT22;41041;43.162;20.538;2022-09-23T07:12:02;256.50;2252.80
55151;DHT22;41041;43.162;20.538;2022-09-23T07:14:27;256.60;2252.80
55151;DHT22;41041;43.162;20.538;2022-09-23T07:16:53;256.30;2252.80
55151;DHT22;41041;43.162;20.538;2022-09-23T07:19:42;256.40;2252.80
55151;DHT22;41041;43.162;20.538;2022-09-23T07:22:08;256.40;2252.80
55151;DHT22;41041;43.162;20.538;2022-09-23T07:24:34;256.40;2252.80
55151;DHT22;41041;43.162;20.538;2022-09-23T07:26:59;256.40;2252.80
55151;DHT22;41041;43.162;20.538;2022-09-23T07:29:26;256.40;2252.80
55151;DHT22;41041;43.162;20.538;2022-09-23T07:31:52;256.60;2252.80
